createdAt,value
2018-06-30T00:02:25.525Z,22.79
2018-06-30T00:04:54.150Z,22.81
2018-06-30T00:07:23.517Z,22.78
2018-06-30T00:09:51.862Z,22.75
2018-06-30T00:12:20.336Z,22.70
2018-06-30T00:14:48.724Z,22.62
2018-06-30T00:17:17.102Z,22.57
2018-06-30T00:19:45.671Z,22.54
2018-06-30T00:22:14.122Z,22.48
2018-06-30T00:24:42.594Z,22.44
2018-06-30T00:27:16.107Z,22.37
2018-06-30T00:29:44.466Z,22.32
2018-06-30T00:32:12.856Z,22.33
2018-06-30T00:34:41.244Z,22.29
2018-06-30T00:37:09.674Z,22.25
2018-06-30T00:39:38.264Z,22.23
2018-06-30T00:42:06.600Z,22.18
2018-06-30T00:44:34.968Z,22.09
2018-06-30T00:47:03.970Z,22.06
2018-06-30T00:49:32.360Z,21.94
2018-06-30T00:52:00.960Z,21.90
2018-06-30T00:54:29.501Z,21.87
2018-06-30T00:56:57.894Z,21.88
2018-06-30T00:59:26.193Z,21.85
2018-06-30T01:01:54.660Z,21.76
2018-06-30T01:04:23.157Z,21.71
2018-06-30T01:06:51.534Z,21.72
2018-06-30T01:09:19.833Z,21.66
2018-06-30T01:11:48.399Z,21.62
2018-06-30T01:14:17.011Z,21.55
2018-06-30T01:16:45.572Z,21.51
2018-06-30T01:19:14.848Z,21.52
2018-06-30T01:21:43.244Z,21.52
2018-06-30T01:24:11.618Z,21.43
2018-06-30T01:26:39.965Z,21.35
2018-06-30T01:29:08.390Z,21.35
2018-06-30T01:31:36.819Z,21.23
2018-06-30T01:34:05.301Z,21.20
2018-06-30T01:36:33.630Z,21.20
2018-06-30T01:39:01.962Z,21.08
2018-06-30T01:41:30.396Z,21.08
2018-06-30T01:43:58.718Z,21.02
2018-06-30T01:46:27.057Z,20.98
2018-06-30T01:48:55.658Z,20.89
2018-06-30T01:51:24.032Z,20.87
2018-06-30T01:53:52.371Z,20.88
2018-06-30T01:56:20.760Z,20.82
2018-06-30T01:58:49.070Z,20.73
2018-06-30T02:01:22.586Z,20.68
2018-06-30T02:03:50.974Z,20.65
2018-06-30T02:06:19.352Z,20.63
2018-06-30T02:08:47.777Z,20.64
2018-06-30T02:11:16.208Z,20.59
2018-06-30T02:13:44.532Z,20.57
2018-06-30T02:16:12.984Z,20.49
2018-06-30T02:18:41.328Z,20.32
2018-06-30T02:21:09.700Z,20.26
2018-06-30T02:23:37.985Z,20.24
2018-06-30T02:26:06.354Z,20.23
2018-06-30T02:28:34.858Z,20.23
2018-06-30T02:31:03.191Z,20.17
2018-06-30T02:33:31.491Z,20.18
2018-06-30T02:35:59.919Z,20.24
2018-06-30T02:38:28.272Z,20.32
2018-06-30T02:40:56.730Z,20.29
2018-06-30T02:43:25.096Z,20.25
2018-06-30T02:45:53.928Z,20.23
2018-06-30T02:48:22.252Z,20.24
2018-06-30T02:50:50.723Z,20.18
2018-06-30T02:53:19.168Z,20.24
2018-06-30T02:55:47.546Z,20.17
2018-06-30T02:58:15.915Z,20.14
2018-06-30T03:00:44.340Z,19.95
2018-06-30T03:03:12.644Z,19.80
2018-06-30T03:05:41.061Z,19.74
2018-06-30T03:08:09.458Z,19.71
2018-06-30T03:10:37.838Z,19.69
2018-06-30T03:13:07.226Z,19.69
2018-06-30T03:15:35.624Z,19.74
2018-06-30T03:18:03.980Z,19.73
2018-06-30T03:20:32.394Z,19.58
2018-06-30T03:23:05.992Z,19.46
2018-06-30T03:25:34.310Z,19.42
2018-06-30T03:28:02.608Z,19.28
2018-06-30T03:30:31.942Z,19.28
2018-06-30T03:33:00.402Z,19.32
2018-06-30T03:35:28.768Z,19.40
2018-06-30T03:37:57.674Z,19.42
2018-06-30T03:40:26.057Z,19.42
2018-06-30T03:42:54.548Z,19.39
2018-06-30T03:45:22.930Z,19.41
2018-06-30T03:47:51.448Z,19.46
2018-06-30T03:50:19.805Z,19.55
2018-06-30T03:52:48.190Z,19.48
2018-06-30T03:55:16.664Z,19.45
2018-06-30T03:57:45.050Z,19.44
2018-06-30T04:00:13.378Z,19.41
2018-06-30T04:02:41.798Z,19.41
2018-06-30T04:05:10.160Z,19.32
2018-06-30T04:07:38.616Z,19.25
2018-06-30T04:10:07.092Z,19.11
2018-06-30T04:12:35.444Z,18.97
2018-06-30T04:15:03.796Z,18.85
2018-06-30T04:17:32.342Z,18.87
2018-06-30T04:20:00.696Z,18.88
2018-06-30T04:22:29.032Z,18.99
2018-06-30T04:24:57.476Z,18.97
2018-06-30T04:27:26.445Z,18.93
2018-06-30T04:29:55.523Z,18.99
2018-06-30T04:32:24.128Z,19.00
2018-06-30T04:34:52.890Z,18.96
2018-06-30T04:37:21.260Z,18.94
2018-06-30T04:39:49.609Z,18.82
2018-06-30T04:42:31.742Z,18.72
2018-06-30T04:45:00.662Z,18.76
2018-06-30T04:47:30.781Z,18.79
2018-06-30T04:49:59.511Z,18.82
2018-06-30T04:52:28.968Z,18.75
2018-06-30T04:54:57.560Z,18.78
2018-06-30T04:57:26.346Z,18.76
2018-06-30T04:59:56.241Z,18.58
2018-06-30T05:02:24.831Z,18.70
2018-06-30T05:04:53.557Z,18.75
2018-06-30T05:07:22.031Z,18.79
2018-06-30T05:09:50.657Z,18.79
2018-06-30T05:12:19.154Z,18.81
2018-06-30T05:14:48.386Z,18.71
2018-06-30T05:17:16.938Z,18.74
2018-06-30T05:19:45.540Z,18.82
2018-06-30T05:22:14.323Z,18.86
2018-06-30T05:24:42.781Z,18.79
2018-06-30T05:27:11.269Z,18.86
2018-06-30T05:29:39.679Z,18.81
2018-06-30T05:32:08.161Z,18.75
2018-06-30T05:34:36.916Z,18.79
2018-06-30T05:37:06.268Z,18.71
2018-06-30T05:39:35.351Z,18.67
2018-06-30T05:44:56.635Z,18.80
2018-06-30T05:47:25.069Z,18.87
2018-06-30T05:49:53.592Z,18.92
2018-06-30T05:52:22.128Z,19.03
2018-06-30T05:54:50.644Z,19.08
2018-06-30T05:57:19.398Z,19.19
2018-06-30T05:59:48.181Z,19.13
2018-06-30T06:02:16.703Z,19.02
2018-06-30T06:04:45.191Z,18.95
2018-06-30T06:07:13.751Z,18.91
2018-06-30T06:09:42.634Z,18.91
2018-06-30T06:12:11.885Z,18.94
2018-06-30T06:14:40.739Z,19.10
2018-06-30T06:17:09.468Z,19.12
2018-06-30T06:19:37.813Z,19.10
2018-06-30T06:22:06.663Z,19.16
2018-06-30T06:24:35.538Z,19.14
2018-06-30T06:27:04.248Z,19.14
2018-06-30T06:29:32.946Z,19.25
2018-06-30T06:32:01.532Z,19.32
2018-06-30T06:34:30.390Z,19.41
2018-06-30T06:36:58.800Z,19.44
2018-06-30T06:39:27.165Z,19.39
2018-06-30T06:41:57.454Z,19.38
2018-06-30T06:44:25.990Z,19.32
2018-06-30T06:46:54.487Z,19.29
2018-06-30T06:49:22.987Z,19.21
2018-06-30T06:51:51.573Z,19.20
2018-06-30T06:54:20.253Z,19.26
2018-06-30T06:56:50.235Z,19.34
2018-06-30T06:59:18.790Z,19.48
2018-06-30T07:01:47.456Z,19.61
2018-06-30T07:04:15.828Z,19.69
2018-06-30T07:06:44.394Z,19.72
2018-06-30T07:09:13.247Z,19.73
2018-06-30T07:11:41.987Z,19.80
2018-06-30T07:14:11.100Z,19.86
2018-06-30T07:16:39.594Z,19.84
2018-06-30T07:19:08.124Z,19.81
2018-06-30T07:21:46.380Z,19.86
2018-06-30T07:24:16.027Z,19.96
2018-06-30T07:26:45.674Z,19.94
2018-06-30T07:29:15.324Z,19.93
2018-06-30T07:31:45.144Z,20.02
2018-06-30T07:34:20.176Z,20.13
2018-06-30T07:36:53.166Z,20.26
2018-06-30T07:39:22.168Z,20.36
2018-06-30T07:41:53.592Z,20.45
2018-06-30T07:44:24.395Z,20.50
2018-06-30T07:46:53.757Z,20.54
2018-06-30T07:49:23.766Z,20.52
2018-06-30T07:52:00.102Z,20.56
2018-06-30T07:54:29.392Z,20.62
2018-06-30T07:57:01.170Z,20.73
2018-06-30T07:59:31.001Z,20.75
2018-06-30T08:02:13.191Z,20.71
2018-06-30T08:04:42.502Z,20.77
2018-06-30T08:07:13.914Z,20.85
2018-06-30T08:09:45.317Z,20.92
2018-06-30T08:15:10.548Z,21.04
2018-06-30T08:17:40.356Z,21.05
2018-06-30T08:20:12.684Z,21.00
2018-06-30T08:34:28.972Z,21.12
2018-06-30T08:37:02.127Z,21.14
2018-06-30T08:39:31.796Z,21.13
2018-06-30T08:42:14.952Z,21.08
2018-06-30T08:44:48.896Z,21.07
2018-06-30T08:47:19.854Z,21.09
2018-06-30T08:49:57.675Z,21.17
2018-06-30T08:52:31.860Z,21.28
2018-06-30T08:55:10.357Z,21.23
2018-06-30T08:57:47.853Z,21.21
2018-06-30T09:00:17.882Z,21.28
2018-06-30T09:02:49.314Z,21.29
2018-06-30T09:05:18.881Z,21.30
2018-06-30T09:07:52.068Z,21.26
2018-06-30T09:10:25.016Z,21.28
2018-06-30T09:12:53.960Z,21.34
2018-06-30T09:15:22.492Z,21.41
2018-06-30T09:17:51.044Z,21.52
2018-06-30T09:20:20.500Z,21.59
2018-06-30T09:22:49.945Z,21.68
2018-06-30T09:25:18.574Z,21.73
2018-06-30T09:27:47.062Z,21.76
2018-06-30T09:30:15.448Z,21.81
2018-06-30T09:32:44.340Z,21.82
2018-06-30T09:35:14.968Z,21.83
2018-06-30T09:37:43.480Z,21.89
2018-06-30T09:40:12.070Z,21.99
2018-06-30T09:42:40.695Z,22.04
2018-06-30T09:45:09.222Z,22.08
2018-06-30T09:47:37.943Z,22.15
2018-06-30T09:50:06.730Z,22.22
2018-06-30T09:52:35.347Z,22.29
2018-06-30T09:55:04.106Z,22.35
2018-06-30T09:57:33.088Z,22.44
2018-06-30T10:00:01.572Z,22.46
2018-06-30T10:02:30.279Z,22.47
2018-06-30T10:04:59.329Z,22.53
2018-06-30T10:07:27.987Z,22.64
2018-06-30T10:09:56.777Z,22.75
2018-06-30T10:12:25.603Z,22.77
2018-06-30T10:14:54.121Z,22.79
2018-06-30T10:17:22.523Z,22.86
2018-06-30T10:19:51.427Z,22.95
2018-06-30T10:22:20.249Z,22.96
2018-06-30T10:24:49.470Z,22.91
2018-06-30T10:27:17.989Z,22.93
2018-06-30T10:29:46.743Z,23.02
2018-06-30T10:32:25.497Z,23.01
2018-06-30T10:34:53.969Z,23.10
2018-06-30T10:37:22.583Z,23.25
2018-06-30T10:39:51.907Z,23.33
2018-06-30T10:42:21.567Z,23.27
2018-06-30T10:44:50.387Z,23.34
2018-06-30T10:47:19.237Z,23.42
2018-06-30T10:49:49.015Z,23.58
2018-06-30T10:52:17.532Z,23.70
2018-06-30T10:54:46.036Z,23.77
2018-06-30T10:57:15.666Z,23.76
2018-06-30T10:59:44.630Z,23.79
2018-06-30T11:02:13.764Z,23.83
2018-06-30T11:04:44.023Z,23.93
2018-06-30T11:07:12.904Z,24.07
2018-06-30T11:09:42.682Z,24.21
2018-06-30T11:12:29.764Z,24.22
2018-06-30T11:14:59.091Z,24.27
2018-06-30T11:17:28.603Z,24.27
2018-06-30T11:19:57.700Z,24.30
2018-06-30T11:22:27.308Z,24.32
2018-06-30T11:24:56.298Z,24.49
2018-06-30T11:27:26.074Z,24.67
2018-06-30T11:29:54.880Z,24.80
2018-06-30T11:32:24.139Z,24.69
2018-06-30T11:34:53.098Z,24.69
2018-06-30T11:37:22.446Z,24.76
2018-06-30T11:39:51.032Z,24.87
2018-06-30T11:42:19.450Z,24.97
2018-06-30T11:44:48.059Z,24.97
2018-06-30T11:47:17.717Z,24.95
2018-06-30T11:49:46.731Z,25.07
2018-06-30T11:52:15.189Z,25.17
2018-06-30T11:54:43.680Z,25.20
2018-06-30T11:57:12.137Z,25.33
2018-06-30T11:59:40.771Z,25.46
2018-06-30T12:02:09.691Z,25.63
2018-06-30T12:04:38.183Z,25.86
2018-06-30T12:07:07.435Z,25.85
2018-06-30T12:09:35.773Z,25.87
2018-06-30T12:12:04.297Z,25.96
2018-06-30T12:14:32.751Z,26.20
2018-06-30T12:17:01.812Z,26.18
2018-06-30T12:19:31.591Z,26.08
2018-06-30T12:22:01.245Z,26.08
2018-06-30T12:24:30.095Z,26.12
2018-06-30T12:26:58.620Z,26.29
2018-06-30T12:29:27.159Z,26.50
2018-06-30T12:31:55.682Z,26.61
2018-06-30T12:34:24.101Z,26.89
2018-06-30T12:36:52.594Z,26.90
2018-06-30T12:39:21.038Z,26.94
2018-06-30T12:41:49.529Z,26.84
2018-06-30T12:44:18.004Z,26.78
2018-06-30T12:46:46.580Z,26.85
2018-06-30T12:49:15.154Z,26.90
2018-06-30T12:51:43.750Z,26.89
2018-06-30T12:54:12.407Z,26.93
2018-06-30T12:56:40.652Z,27.02
2018-06-30T12:59:09.264Z,26.89
2018-06-30T13:01:37.790Z,26.91
2018-06-30T13:04:06.259Z,26.91
2018-06-30T13:06:35.117Z,26.97
2018-06-30T13:09:04.672Z,27.02
2018-06-30T13:11:33.456Z,27.17
2018-06-30T13:14:01.904Z,27.10
2018-06-30T13:16:30.326Z,27.05
2018-06-30T13:18:59.093Z,27.09
2018-06-30T13:21:27.643Z,27.05
2018-06-30T13:23:56.099Z,27.20
2018-06-30T13:26:24.638Z,27.13
2018-06-30T13:28:53.279Z,27.10
2018-06-30T13:31:21.709Z,27.22
2018-06-30T13:33:50.172Z,27.35
2018-06-30T13:36:18.622Z,27.23
2018-06-30T13:38:47.084Z,27.21
2018-06-30T13:41:15.644Z,27.14
2018-06-30T13:43:44.125Z,27.14
2018-06-30T13:46:12.864Z,27.23
2018-06-30T13:48:41.310Z,27.37
2018-06-30T13:51:09.943Z,27.35
2018-06-30T13:53:38.383Z,27.24
2018-06-30T13:56:07.336Z,27.16
2018-06-30T13:58:35.839Z,27.23
2018-06-30T14:01:04.379Z,27.25
2018-06-30T14:03:32.789Z,27.26
2018-06-30T14:06:01.266Z,27.19
2018-06-30T14:08:29.679Z,27.24
2018-06-30T14:10:59.081Z,27.34
2018-06-30T14:13:28.449Z,27.34
2018-06-30T14:15:56.945Z,27.41
2018-06-30T14:18:26.737Z,27.04
2018-06-30T14:20:55.419Z,26.75
2018-06-30T14:23:25.313Z,26.49
2018-06-30T14:25:54.640Z,26.53
2018-06-30T14:28:24.047Z,26.74
2018-06-30T14:30:52.662Z,26.89
2018-06-30T14:33:26.621Z,27.03
2018-06-30T14:35:55.571Z,27.18
2018-06-30T14:38:24.226Z,27.18
2018-06-30T14:40:53.178Z,27.11
2018-06-30T14:43:21.756Z,27.18
2018-06-30T14:45:50.090Z,27.19
2018-06-30T14:48:18.794Z,27.30
2018-06-30T14:50:47.449Z,27.32
2018-06-30T14:53:16.040Z,27.28
2018-06-30T14:55:44.516Z,26.98
2018-06-30T14:58:12.932Z,26.85
2018-06-30T15:00:41.458Z,27.00
2018-06-30T15:03:10.255Z,27.03
2018-06-30T15:05:38.838Z,27.16
2018-06-30T15:08:07.609Z,26.96
2018-06-30T15:10:36.209Z,26.58
2018-06-30T15:13:05.092Z,26.07
2018-06-30T15:15:33.576Z,25.99
2018-06-30T15:18:02.069Z,25.96
2018-06-30T15:20:30.551Z,25.98
2018-06-30T15:22:59.218Z,25.78
2018-06-30T15:25:27.761Z,25.56
2018-06-30T15:27:56.544Z,25.36
2018-06-30T15:30:26.317Z,25.19
2018-06-30T15:32:55.290Z,25.09
2018-06-30T15:35:24.079Z,25.10
2018-06-30T15:37:52.535Z,25.00
2018-06-30T15:40:20.962Z,24.89
2018-06-30T15:42:49.759Z,24.83
2018-06-30T15:45:20.660Z,24.82
2018-06-30T15:47:50.232Z,24.81
2018-06-30T15:50:18.945Z,24.89
2018-06-30T15:52:47.704Z,24.83
2018-06-30T15:55:16.419Z,24.77
2018-06-30T15:57:46.352Z,24.74
2018-06-30T16:00:15.371Z,24.66
2018-06-30T16:02:45.407Z,24.60
2018-06-30T16:05:15.041Z,24.53
2018-06-30T16:07:50.133Z,24.46
2018-06-30T16:10:19.809Z,24.45
2018-06-30T16:12:48.352Z,24.31
2018-06-30T16:15:18.421Z,24.32
2018-06-30T16:17:47.008Z,24.31
2018-06-30T16:20:15.504Z,24.29
2018-06-30T16:22:44.028Z,24.28
2018-06-30T16:25:12.502Z,24.31
2018-06-30T16:27:41.135Z,24.32
2018-06-30T16:30:09.968Z,24.33
2018-06-30T16:32:38.753Z,24.36
2018-06-30T16:35:08.323Z,24.35
2018-06-30T16:37:38.185Z,24.25
2018-06-30T16:40:07.889Z,24.09
2018-06-30T16:42:36.827Z,23.97
2018-06-30T16:45:06.645Z,23.96
2018-06-30T16:47:35.419Z,23.85
2018-06-30T16:50:04.171Z,23.72
2018-06-30T16:52:32.557Z,23.77
2018-06-30T16:55:01.145Z,23.85
2018-06-30T16:57:29.821Z,23.83
2018-06-30T16:59:58.515Z,23.87
2018-06-30T17:02:27.039Z,23.93
2018-06-30T17:04:55.580Z,23.96
2018-06-30T17:07:24.002Z,23.88
2018-06-30T17:09:52.445Z,23.94
2018-06-30T17:12:21.043Z,24.00
2018-06-30T17:14:49.547Z,24.02
2018-06-30T17:17:18.077Z,24.05
2018-06-30T17:19:46.877Z,24.07
2018-06-30T17:22:15.859Z,24.03
2018-06-30T17:24:44.291Z,24.02
2018-06-30T17:27:12.876Z,23.98
2018-06-30T17:29:41.400Z,23.97
2018-06-30T17:32:09.939Z,23.95
2018-06-30T17:34:38.771Z,23.88
2018-06-30T17:37:07.437Z,23.79
2018-06-30T17:39:36.135Z,23.78
2018-06-30T17:42:04.977Z,23.75
2018-06-30T17:44:33.669Z,23.67
2018-06-30T17:47:07.203Z,23.64
2018-06-30T17:49:35.936Z,23.58
2018-06-30T17:52:06.395Z,23.55
2018-06-30T17:54:35.291Z,23.51
2018-06-30T17:57:05.585Z,23.51
2018-06-30T17:59:38.963Z,23.64
2018-06-30T18:02:08.165Z,23.60
2018-06-30T18:04:37.091Z,23.66
2018-06-30T18:07:05.855Z,23.69
2018-06-30T18:09:35.349Z,23.61
2018-06-30T18:12:03.811Z,23.63
2018-06-30T18:14:32.489Z,23.63
2018-06-30T18:17:03.150Z,23.67
2018-06-30T18:19:31.769Z,23.77
2018-06-30T18:22:00.635Z,23.75
2018-06-30T18:24:29.165Z,23.83
2018-06-30T18:26:57.984Z,23.77
2018-06-30T18:29:27.658Z,23.75
2018-06-30T18:31:56.354Z,23.70
2018-06-30T18:34:24.994Z,23.64
2018-06-30T18:36:53.795Z,23.64
2018-06-30T18:39:22.798Z,23.61
2018-06-30T18:41:53.419Z,23.55
2018-06-30T18:44:22.105Z,23.49
2018-06-30T18:46:51.885Z,23.52
2018-06-30T18:49:21.743Z,23.50
2018-06-30T18:51:50.473Z,23.49
2018-06-30T18:54:19.474Z,23.51
2018-06-30T18:56:48.005Z,23.43
2018-06-30T18:59:18.766Z,23.35
2018-06-30T19:01:48.182Z,23.33
2018-06-30T19:04:16.887Z,23.36
2018-06-30T19:06:46.908Z,23.38
2018-06-30T19:09:15.741Z,23.37
2018-06-30T19:11:44.405Z,23.31
2018-06-30T19:14:13.419Z,23.28
2018-06-30T19:16:42.326Z,23.21
2018-06-30T19:19:11.053Z,23.15
2018-06-30T19:21:40.443Z,23.08
2018-06-30T19:24:10.452Z,22.99
2018-06-30T19:26:39.691Z,22.95
2018-06-30T19:29:08.278Z,22.95
2018-06-30T19:31:37.214Z,22.97
2018-06-30T19:34:05.901Z,22.99
2018-06-30T19:36:34.860Z,23.05
2018-06-30T19:39:03.867Z,23.04
2018-06-30T19:41:32.539Z,23.01
2018-06-30T19:44:02.113Z,22.98
2018-06-30T19:46:31.055Z,22.95
2018-06-30T19:49:00.260Z,22.93
2018-06-30T19:51:29.051Z,22.77
2018-06-30T19:53:58.773Z,22.75
2018-06-30T19:56:27.376Z,22.76
2018-06-30T19:58:57.485Z,22.81
2018-06-30T20:01:31.945Z,22.65
2018-06-30T20:04:03.189Z,22.46
2018-06-30T20:06:32.450Z,22.28
2018-06-30T20:09:01.043Z,22.31
2018-06-30T20:11:29.656Z,22.34
2018-06-30T20:13:58.736Z,22.41
2018-06-30T20:16:27.561Z,22.41
2018-06-30T20:18:58.752Z,22.42
2018-06-30T20:24:43.293Z,22.18
2018-06-30T20:27:12.551Z,22.06
2018-06-30T20:29:41.034Z,22.10
2018-06-30T20:32:09.794Z,22.13
2018-06-30T20:34:40.124Z,22.18
2018-06-30T20:37:09.079Z,22.13
2018-06-30T20:39:38.023Z,21.91
2018-06-30T20:42:07.759Z,21.79
2018-06-30T20:44:37.227Z,21.77
2018-06-30T20:47:14.233Z,21.77
2018-06-30T20:49:44.686Z,21.82
2018-06-30T20:52:15.501Z,21.70
2018-06-30T20:54:44.275Z,21.68
2018-06-30T20:57:12.953Z,21.66
2018-06-30T20:59:41.909Z,21.58
2018-06-30T21:02:11.411Z,21.60
2018-06-30T21:04:42.169Z,21.63
2018-06-30T21:07:11.653Z,21.69
2018-06-30T21:09:44.243Z,21.63
2018-06-30T21:12:12.961Z,21.53
2018-06-30T21:14:41.808Z,21.50
2018-06-30T21:17:10.533Z,21.47
2018-06-30T21:19:39.645Z,21.50
2018-06-30T21:22:08.079Z,21.53
2018-06-30T21:24:36.507Z,21.50
2018-06-30T21:27:05.239Z,21.53
2018-06-30T21:29:34.167Z,21.51
2018-06-30T21:32:02.859Z,21.45
2018-06-30T21:34:34.003Z,21.45
2018-06-30T21:37:02.775Z,21.36
2018-06-30T21:39:31.657Z,21.30
2018-06-30T21:42:10.136Z,21.30
2018-06-30T21:44:39.648Z,21.30
2018-06-30T21:47:08.212Z,21.31
2018-06-30T21:49:36.705Z,21.32
2018-06-30T21:52:05.131Z,21.11
2018-06-30T21:54:33.631Z,21.06
2018-06-30T21:57:02.417Z,21.06
2018-06-30T21:59:31.705Z,21.14
2018-06-30T22:02:00.265Z,21.16
2018-06-30T22:04:28.645Z,21.18
2018-06-30T22:06:57.269Z,21.11
2018-06-30T22:09:25.969Z,21.07
2018-06-30T22:11:54.397Z,20.91
2018-06-30T22:14:24.872Z,20.88
2018-06-30T22:16:53.303Z,20.96
2018-06-30T22:19:24.194Z,20.97
2018-06-30T22:21:53.007Z,20.89
2018-06-30T22:24:21.766Z,20.89
2018-06-30T22:26:50.213Z,20.83
2018-06-30T22:29:18.615Z,20.80
2018-06-30T22:32:00.763Z,20.81
2018-06-30T22:34:29.229Z,20.79
2018-06-30T22:36:57.615Z,20.77
2018-06-30T22:39:37.775Z,20.74
2018-06-30T22:42:06.429Z,20.68
2018-06-30T22:44:34.900Z,20.59
2018-06-30T22:47:03.983Z,20.53
2018-06-30T22:49:34.660Z,20.52
2018-06-30T22:52:13.004Z,20.47
2018-06-30T22:54:41.657Z,20.40
2018-06-30T22:57:10.315Z,20.34
2018-06-30T22:59:39.719Z,20.39
2018-06-30T23:02:08.398Z,20.29
2018-06-30T23:04:36.957Z,20.25
2018-06-30T23:07:07.411Z,20.22
2018-06-30T23:09:35.740Z,20.22
2018-06-30T23:15:20.187Z,20.10
2018-06-30T23:17:48.690Z,20.08
2018-06-30T23:20:17.303Z,20.04
2018-06-30T23:22:56.056Z,19.94
2018-06-30T23:25:26.662Z,19.95
2018-06-30T23:27:55.801Z,19.92
2018-06-30T23:30:25.560Z,19.87
2018-06-30T23:32:55.106Z,19.78
2018-06-30T23:35:26.574Z,19.55
2018-06-30T23:37:57.356Z,19.52
2018-06-30T23:40:26.629Z,19.49
2018-06-30T23:46:01.386Z,19.48
2018-06-30T23:48:29.924Z,19.39
2018-06-30T23:50:59.324Z,19.32
2018-06-30T23:53:27.946Z,19.25
2018-06-30T23:55:57.018Z,19.12
2018-06-30T23:58:25.496Z,19.10
